Time;durP1;ratioP1;P1;durP2;ratioP2;P2;SDS_P1;SDS_P2;PMS_P1;PMS_P2;Temp;Humidity;BMP_temperature;BMP_pressure;BME280_temperature;BME280_humidity;BME280_pressure;Samples;Min_cycle;Max_cycle;Signal;HPM_P1;HPM_P2
2022/02/04 00:24:34;;;;;;;36.58;20.17;;;;;;;6.55;100.00;101112.72;5155429;27;20404;-55
2022/02/04 00:27:08;;;;;;;34.70;20.30;;;;;;;6.54;100.00;101111.84;5155371;27;20119;-55
2022/02/04 00:29:45;;;;;;;35.55;20.92;;;;;;;6.53;100.00;101110.19;5155152;27;20061;-54
2022/02/04 00:32:14;;;;;;;34.90;19.90;;;;;;;6.53;100.00;101107.56;5155479;27;20546;-55
2022/02/04 00:34:48;;;;;;;32.80;19.65;;;;;;;6.53;100.00;101106.69;5155251;27;20043;-55
2022/02/04 00:37:26;;;;;;;34.00;20.13;;;;;;;6.55;100.00;101090.03;5155106;27;20042;-56
2022/02/04 00:39:58;;;;;;;34.75;19.08;;;;;;;6.58;100.00;101100.34;5154743;27;20042;-54
2022/02/04 00:42:27;;;;;;;;;;;;;;;6.57;100.00;101103.91;5155102;27;20046;-54
2022/02/04 00:45:09;;;;;;;32.78;18.52;;;;;;;6.55;100.00;101087.41;5154844;27;19926;-52
2022/02/04 00:48:08;;;;;;;31.33;17.88;;;;;;;6.65;100.00;101094.84;5136368;27;20109;-45
2022/02/04 00:50:49;;;;;;;33.33;19.85;;;;;;;6.61;100.00;101086.28;5155140;27;20049;-46
2022/02/04 00:53:28;;;;;;;31.15;19.20;;;;;;;6.60;100.00;101089.84;5154844;27;20527;-44
2022/02/04 00:56:08;;;;;;;32.95;19.20;;;;;;;6.68;100.00;101079.03;5154257;27;20050;-55
2022/02/04 01:26:22;;;;;;;31.33;17.85;;;;;;;6.65;100.00;101077.41;5154494;27;20050;-55
2022/02/04 01:28:52;;;;;;;31.30;18.40;;;;;;;6.67;100.00;101072.13;5154184;27;20064;-55
2022/02/04 01:31:23;;;;;;;36.35;19.42;;;;;;;6.62;100.00;101080.16;5154312;27;20046;-55
2022/02/04 01:33:53;;;;;;;31.23;18.52;;;;;;;6.62;100.00;101079.31;5154271;27;20047;-55
2022/02/04 01:36:21;;;;;;;34.65;18.63;;;;;;;6.68;100.00;101079.91;5154174;27;20049;-54
2022/02/04 01:38:49;;;;;;;34.72;18.88;;;;;;;6.65;100.00;101081.78;5154258;27;20039;-54
2022/02/04 01:41:17;;;;;;;35.95;17.63;;;;;;;6.64;100.00;101073.09;5154232;27;20090;-55
2022/02/04 01:43:47;;;;;;;32.08;19.20;;;;;;;6.68;100.00;101073.81;5154024;27;20043;-54
2022/02/04 01:46:15;;;;;;;30.13;17.23;;;;;;;6.64;100.00;101064.41;5154287;27;20142;-55
2022/02/04 01:48:44;;;;;;;28.10;16.25;;;;;;;6.64;100.00;101061.78;5153304;27;20541;-52
2022/02/04 01:51:14;;;;;;;28.40;16.85;;;;;;;6.63;100.00;101054.88;5153764;27;20059;-55
2022/02/04 01:53:43;;;;;;;27.73;16.15;;;;;;;6.63;100.00;101047.88;5154124;27;20046;-53
2022/02/04 01:56:14;;;;;;;31.98;18.02;;;;;;;6.69;100.00;101051.97;5154043;27;20043;-56
2022/02/04 01:58:43;;;;;;;26.92;15.70;;;;;;;6.67;100.00;101048.59;5153643;27;20046;-55
2022/02/04 02:01:13;;;;;;;31.67;16.02;;;;;;;6.66;100.00;101052.13;5153926;27;20095;-56
2022/02/04 02:03:41;;;;;;;26.15;15.82;;;;;;;6.62;100.00;101056.63;5153575;27;20046;-54
2022/02/04 02:06:11;;;;;;;28.15;16.25;;;;;;;6.59;100.00;101051.56;5154076;27;20051;-56
2022/02/04 02:08:41;;;;;;;25.42;15.80;;;;;;;6.63;100.00;101054.88;5139087;27;20081;-55
2022/02/04 02:11:10;;;;;;;29.20;16.60;;;;;;;6.60;100.00;101051.47;5158087;27;20046;-56
2022/02/04 02:13:46;;;;;;;27.25;16.30;;;;;;;6.57;100.00;101053.38;5158005;27;20046;-56
2022/02/04 02:16:47;;;;;;;27.45;15.80;;;;;;;6.60;100.00;101048.88;5157984;27;20059;-54
2022/02/04 02:33:35;;;;;;;24.45;15.30;;;;;;;6.60;100.00;101045.41;5157687;27;20106;-54
2022/02/04 02:44:39;;;;;;;25.35;15.45;;;;;;;6.51;100.00;101033.59;5138742;27;20051;-54
2022/02/04 02:47:20;;;;;;;25.23;13.75;;;;;;;6.54;100.00;101027.38;5157554;27;20418;-56
2022/02/04 02:53:02;;;;;;;24.02;13.82;;;;;;;6.56;100.00;101013.34;5143261;27;20481;-55
2022/02/04 02:55:37;;;;;;;23.80;13.32;;;;;;;6.58;100.00;101011.50;5157344;27;20042;-54
2022/02/04 02:58:10;;;;;;;23.85;13.65;;;;;;;6.57;100.00;101006.34;5156945;27;20047;-55
2022/02/04 03:00:56;;;;;;;22.08;11.88;;;;;;;6.64;100.00;101004.28;5157008;27;20038;-56
2022/02/04 03:03:28;;;;;;;22.77;12.98;;;;;;;6.64;100.00;101012.13;5157296;27;20104;-55
2022/02/04 03:05:56;;;;;;;23.15;12.85;;;;;;;6.61;100.00;101005.28;5157158;27;20065;-54
2022/02/04 03:08:25;;;;;;;20.80;11.98;;;;;;;6.59;100.00;100994.06;5157029;27;20051;-53
2022/02/04 03:10:56;;;;;;;21.55;12.20;;;;;;;6.59;100.00;101001.91;5157242;27;20553;-55
2022/02/04 03:13:26;;;;;;;21.02;12.20;;;;;;;6.57;100.00;100988.03;5157134;27;20058;-52
2022/02/04 03:16:00;;;;;;;18.42;11.45;;;;;;;6.62;100.00;100993.06;5156895;27;20129;-53
2022/02/04 03:18:31;;;;;;;20.02;11.55;;;;;;;6.57;100.00;100993.28;5155878;27;20134;-56
2022/02/04 03:21:09;;;;;;;21.63;12.18;;;;;;;6.56;100.00;100989.81;5156972;27;20374;-56
2022/02/04 03:23:39;;;;;;;21.75;12.52;;;;;;;6.56;100.00;100987.22;5156811;27;20552;-53
2022/02/04 03:26:14;;;;;;;23.80;12.40;;;;;;;6.56;100.00;100986.38;5156746;27;20134;-55
2022/02/04 03:28:42;;;;;;;23.67;11.80;;;;;;;6.54;100.00;100991.63;5156527;27;20054;-56
2022/02/04 03:31:10;;;;;;;20.42;11.38;;;;;;;6.53;100.00;100987.34;5156343;27;20039;-53
2022/02/04 03:33:40;;;;;;;19.33;11.00;;;;;;;6.57;100.00;100991.53;5155888;27;20038;-55
2022/02/04 03:36:09;;;;;;;20.48;11.07;;;;;;;6.57;100.00;100982.81;5156233;27;20211;-55
2022/02/04 03:38:37;;;;;;;20.90;11.25;;;;;;;6.54;100.00;100983.81;5156446;27;20084;-53
2022/02/04 03:41:06;;;;;;;19.88;10.82;;;;;;;6.56;100.00;100976.75;5137878;27;20055;-54
2022/02/04 03:43:36;;;;;;;19.70;10.40;;;;;;;6.54;100.00;100981.19;5137756;27;20054;-55
2022/02/04 03:46:05;;;;;;;19.48;10.63;;;;;;;6.57;100.00;100970.63;5156217;27;20039;-55
2022/02/04 03:48:33;;;;;;;18.77;9.95;;;;;;;6.62;100.00;100972.16;5156125;27;20039;-55
2022/02/04 03:51:02;;;;;;;17.73;10.30;;;;;;;6.55;100.00;100964.59;5155835;27;20054;-55
2022/02/04 03:53:30;;;;;;;20.48;9.80;;;;;;;6.57;100.00;100962.78;5156333;27;20560;-54
2022/02/04 03:55:58;;;;;;;19.10;9.77;;;;;;;6.57;100.00;100972.38;5156055;27;20091;-53
2022/02/04 03:58:27;;;;;;;19.92;9.88;;;;;;;6.57;100.00;100968.00;5156206;27;20111;-56
2022/02/04 04:00:57;;;;;;;19.83;10.30;;;;;;;6.63;100.00;100966.03;5155944;27;20046;-53
2022/02/04 04:03:25;;;;;;;18.85;10.57;;;;;;;6.63;100.00;100964.25;5155986;27;20505;-53
2022/02/04 04:05:53;;;;;;;17.08;9.38;;;;;;;6.59;100.00;100968.75;5155848;27;20099;-54
2022/02/04 04:08:21;;;;;;;15.75;8.95;;;;;;;6.59;100.00;100963.53;5155675;27;20419;-54
2022/02/04 04:10:51;;;;;;;17.50;9.20;;;;;;;6.63;100.00;100966.03;5155581;27;20043;-55
2022/02/04 04:13:19;;;;;;;16.65;9.32;;;;;;;6.63;100.00;100958.19;5155633;27;20493;-56
2022/02/04 04:15:48;;;;;;;17.15;9.75;;;;;;;6.65;100.00;100959.78;5155676;27;20042;-55
2022/02/04 04:18:17;;;;;;;17.17;10.43;;;;;;;6.63;100.00;100956.41;5155527;27;20043;-56
2022/02/04 04:20:46;;;;;;;17.13;9.32;;;;;;;6.63;100.00;100955.56;5155361;27;20047;-56
2022/02/04 04:23:15;;;;;;;19.13;8.93;;;;;;;6.63;100.00;100963.41;5155400;27;20123;-56
2022/02/04 04:25:43;;;;;;;14.60;8.40;;;;;;;6.62;100.00;100965.16;5155298;27;20064;-54
2022/02/04 04:28:11;;;;;;;16.83;9.82;;;;;;;6.73;100.00;100972.50;5155480;27;20039;-54
2022/02/04 04:30:39;;;;;;;14.52;7.63;;;;;;;6.65;100.00;100979.84;5154355;27;20050;-56
2022/02/04 04:33:09;;;;;;;18.50;8.98;;;;;;;6.64;100.00;100972.94;5155290;27;20493;-55
2022/02/04 04:35:38;;;;;;;16.25;9.05;;;;;;;6.63;100.00;100966.88;5155280;27;20045;-55
2022/02/04 04:38:12;;;;;;;16.52;8.25;;;;;;;6.62;100.00;100972.16;5154994;27;20034;-51
2022/02/04 04:40:58;;;;;;;17.55;9.13;;;;;;;6.62;100.00;100967.78;5155102;27;20458;-54
2022/02/04 04:43:41;;;;;;;14.48;7.90;;;;;;;6.65;100.00;100974.63;5155153;27;20110;-54
2022/02/04 05:28:10;;;;;;;14.55;7.60;;;;;;;6.57;100.00;100936.66;5154214;27;20046;-56
2022/02/04 05:30:38;;;;;;;15.10;7.57;;;;;;;6.64;100.00;100933.72;5154179;27;20046;-55
2022/02/04 05:33:07;;;;;;;16.15;7.35;;;;;;;6.63;100.00;100929.44;5154275;27;20146;-56
2022/02/04 05:35:36;;;;;;;11.82;6.50;;;;;;;6.57;100.00;100930.56;5154386;27;20039;-55
2022/02/04 05:38:05;;;;;;;12.90;6.50;;;;;;;6.64;100.00;100931.13;5154281;27;20050;-56
2022/02/04 05:40:40;;;;;;;12.93;7.38;;;;;;;6.65;100.00;100924.97;5153943;27;20035;-53
2022/02/04 05:43:16;;;;;;;11.93;6.63;;;;;;;6.59;100.00;100916.50;5154005;27;20051;-55
2022/02/04 05:45:52;;;;;;;12.75;6.15;;;;;;;6.57;100.00;100920.09;5153769;27;20046;-53
2022/02/04 05:48:22;;;;;;;12.65;6.53;;;;;;;6.55;100.00;100922.78;5151158;27;20061;-55
2022/02/04 05:51:01;;;;;;;12.20;6.22;;;;;;;6.54;100.00;100926.31;5149737;27;20050;-48
2022/02/04 05:53:36;;;;;;;11.23;6.20;;;;;;;6.55;100.00;100917.56;5154047;27;20427;-54
2022/02/04 05:56:13;;;;;;;11.02;5.90;;;;;;;6.63;100.00;100919.81;5151314;27;20045;-54
2022/02/04 05:58:55;;;;;;;12.68;6.05;;;;;;;6.61;100.00;100905.97;5150461;27;20045;-56
2022/02/04 06:01:40;;;;;;;12.48;6.65;;;;;;;6.56;100.00;100897.53;5153753;27;20046;-54
2022/02/04 06:04:23;;;;;;;13.98;7.10;;;;;;;6.59;100.00;100899.97;5154040;27;20042;-55
2022/02/04 06:07:10;;;;;;;12.05;5.57;;;;;;;6.58;100.00;100893.06;5153756;27;20042;-55
2022/02/04 06:10:19;;;;;;;12.93;5.93;;;;;;;6.64;100.00;100886.69;5153972;27;20493;-55
2022/02/04 06:13:12;;;;;;;13.05;6.00;;;;;;;6.66;100.00;100885.69;5153775;27;20497;-55
2022/02/04 06:23:54;;;;;;;12.02;5.35;;;;;;;6.57;100.00;100870.44;5153605;27;20038;-56
2022/02/04 06:26:22;;;;;;;11.50;5.57;;;;;;;6.57;100.00;100880.91;5153975;27;20091;-55
2022/02/04 06:28:52;;;;;;;11.52;6.15;;;;;;;6.62;100.00;100878.91;5153140;27;20043;-53
2022/02/04 06:31:22;;;;;;;11.80;5.32;;;;;;;6.64;100.00;100881.47;5153185;27;20049;-56
2022/02/04 06:33:51;;;;;;;12.00;5.50;;;;;;;6.60;100.00;100879.00;5153303;27;20050;-54
2022/02/04 06:36:19;;;;;;;9.60;4.85;;;;;;;6.59;100.00;100884.31;5140079;27;20381;-55
2022/02/04 06:38:47;;;;;;;11.45;4.78;;;;;;;6.58;100.00;100882.59;5132755;28;20119;-55
2022/02/04 06:41:15;;;;;;;12.27;5.05;;;;;;;6.55;100.00;100880.97;5132726;28;20045;-56
2022/02/04 06:43:43;;;;;;;9.57;5.05;;;;;;;6.60;100.00;100876.38;5114300;28;20493;-56
2022/02/04 06:46:14;;;;;;;10.02;5.10;;;;;;;6.60;100.00;100872.94;5133478;27;20055;-54
2022/02/04 06:48:42;;;;;;;11.13;5.10;;;;;;;6.57;100.00;100871.31;5132555;28;20039;-56
2022/02/04 06:51:10;;;;;;;11.25;4.65;;;;;;;6.60;100.00;100867.72;5132153;28;20077;-56
2022/02/04 06:53:38;;;;;;;8.75;4.25;;;;;;;6.62;100.00;100870.25;5130486;27;20057;-55
2022/02/04 06:56:06;;;;;;;12.43;4.63;;;;;;;6.64;100.00;100868.38;5133016;27;20043;-56
2022/02/04 06:58:34;;;;;;;9.77;4.35;;;;;;;6.63;100.00;100866.72;5134574;27;20047;-56
2022/02/04 07:01:02;;;;;;;10.18;4.70;;;;;;;6.62;100.00;100859.78;5151734;27;20100;-55
2022/02/04 07:03:33;;;;;;;9.77;4.45;;;;;;;6.70;100.00;100863.72;5142766;27;20062;-56
2022/02/04 07:06:03;;;;;;;10.52;4.45;;;;;;;6.76;100.00;100862.56;5136317;27;20055;-55
2022/02/04 07:08:45;;;;;;;9.45;4.20;;;;;;;6.71;100.00;100860.19;5136708;27;20043;-56
2022/02/04 07:11:35;;;;;;;9.50;4.55;;;;;;;6.71;100.00;100859.34;5136271;27;20045;-56
2022/02/04 07:14:07;;;;;;;8.60;4.40;;;;;;;6.73;100.00;100862.72;5136064;27;20053;-55
2022/02/04 07:16:40;;;;;;;8.15;4.07;;;;;;;6.76;100.00;100865.19;5135879;27;20058;-55
2022/02/04 07:21:55;;;;;;;9.05;4.30;;;;;;;6.78;100.00;100863.34;5135870;27;20070;-56
2022/02/04 07:24:23;;;;;;;9.43;4.47;;;;;;;6.79;100.00;100872.03;5135980;27;20043;-56
2022/02/04 07:26:51;;;;;;;8.07;4.20;;;;;;;6.79;100.00;100862.44;5135899;27;20035;-54
2022/02/04 07:29:20;;;;;;;9.68;4.32;;;;;;;6.76;100.00;100847.75;5137414;27;20109;-55
2022/02/04 07:31:49;;;;;;;8.68;4.15;;;;;;;6.75;100.00;100853.06;5134462;27;20100;-52
2022/02/04 07:34:24;;;;;;;9.48;4.43;;;;;;;6.77;100.00;100848.56;5131696;27;20053;-54
2022/02/04 07:42:23;;;;;;;9.25;4.63;;;;;;;6.76;100.00;100839.03;5135476;27;20092;-53
2022/02/04 07:44:51;;;;;;;9.75;4.80;;;;;;;6.79;100.00;100832.81;5135525;27;20054;-55
2022/02/04 07:47:20;;;;;;;8.18;4.68;;;;;;;6.76;100.00;100825.97;5136331;27;20051;-56
2022/02/04 07:49:50;;;;;;;8.93;4.10;;;;;;;6.79;100.00;100824.97;5135614;27;20394;-54
2022/02/04 07:52:18;;;;;;;9.60;5.63;;;;;;;6.75;100.00;100835.59;5134868;27;20078;-44
2022/02/04 07:54:46;;;;;;;8.38;4.35;;;;;;;6.74;100.00;100831.28;5132151;27;20564;-45
2022/02/04 07:57:14;;;;;;;8.77;4.70;;;;;;;6.72;100.00;100829.66;5143288;27;20053;-46
2022/02/04 07:59:43;;;;;;;10.82;4.18;;;;;;;6.75;100.00;100826.91;5154916;27;20053;-48
2022/02/04 08:02:11;;;;;;;9.75;4.45;;;;;;;6.72;100.00;100819.19;5141753;27;20074;-46
2022/02/04 08:04:41;;;;;;;11.60;4.72;;;;;;;6.70;100.00;100810.59;5134954;27;20066;-46
2022/02/04 08:07:14;;;;;;;8.55;4.47;;;;;;;6.72;100.00;100819.19;5134897;27;20078;-48
2022/02/04 08:09:54;;;;;;;10.07;4.35;;;;;;;6.73;100.00;100815.66;5135439;27;20047;-45
2022/02/04 08:12:37;;;;;;;8.80;4.40;;;;;;;6.74;100.00;100822.59;5135335;27;20503;-46
2022/02/04 08:15:16;;;;;;;8.30;4.63;;;;;;;6.75;100.00;100825.13;5134061;27;20111;-48
2022/02/04 08:18:07;;;;;;;9.23;4.40;;;;;;;6.80;100.00;100819.66;5131871;27;20043;-47
2022/02/04 08:20:56;;;;;;;8.23;4.30;;;;;;;6.71;100.00;100813.13;5133698;27;20076;-48
2022/02/04 08:23:52;;;;;;;8.52;4.43;;;;;;;6.75;100.00;100817.28;5146235;27;20039;-45
2022/02/04 08:26:44;;;;;;;9.07;4.60;;;;;;;6.75;100.00;100808.63;5155434;27;20515;-47
2022/02/04 08:29:36;;;;;;;9.82;4.85;;;;;;;6.73;100.00;100805.22;5148062;27;20512;-49
2022/02/04 08:32:33;;;;;;;10.43;4.70;;;;;;;6.75;100.00;100806.00;5113733;27;20066;-44
2022/02/04 08:35:19;;;;;;;10.80;4.82;;;;;;;6.72;100.00;100809.59;5133858;27;20074;-50
2022/02/04 08:38:11;;;;;;;9.45;4.88;;;;;;;6.70;100.00;100814.06;5133794;27;20042;-46
2022/02/04 08:49:22;;;;;;;9.13;4.78;;;;;;;6.76;100.00;100805.06;5154622;27;20070;-45
2022/02/04 08:52:11;;;;;;;9.88;5.30;;;;;;;6.77;100.00;100806.75;5146094;27;20497;-44
2022/02/04 08:54:43;;;;;;;10.35;5.18;;;;;;;6.81;100.00;100805.69;5134140;27;20081;-46
2022/02/04 08:57:23;;;;;;;9.48;5.38;;;;;;;6.79;100.00;100797.09;5139467;27;20049;-48
2022/02/04 09:00:00;;;;;;;10.60;5.93;;;;;;;6.90;100.00;100791.31;5154978;27;20392;-46
2022/02/04 09:02:35;;;;;;;10.65;6.53;;;;;;;6.93;100.00;100789.38;5154654;27;20540;-47
2022/02/04 09:05:10;;;;;;;11.15;5.50;;;;;;;6.96;100.00;100792.78;5142600;27;20045;-46
2022/02/04 09:07:50;;;;;;;10.50;5.60;;;;;;;6.96;100.00;100790.16;5140307;27;20058;-44
2022/02/04 09:10:23;;;;;;;9.68;5.45;;;;;;;7.04;100.00;100782.75;5133780;27;20047;-46
2022/02/04 09:18:36;;;;;;;11.23;5.53;;;;;;;7.13;100.00;100778.81;5133917;27;20065;-48
2022/02/04 09:21:35;;;;;;;9.88;5.20;;;;;;;7.16;100.00;100776.91;5135224;27;20043;-46
2022/02/04 09:24:04;;;;;;;11.05;6.50;;;;;;;7.24;100.00;100766.88;5133675;27;20043;-47
2022/02/04 09:26:33;;;;;;;10.70;5.25;;;;;;;7.32;100.00;100776.09;5133648;27;20039;-45
2022/02/04 09:29:02;;;;;;;10.07;5.72;;;;;;;7.27;100.00;100773.72;5133610;27;20519;-45
2022/02/04 09:31:30;;;;;;;9.35;5.40;;;;;;;7.33;100.00;100777.78;5133480;27;20043;-49
2022/02/04 09:33:59;;;;;;;10.80;5.68;;;;;;;7.32;100.00;100769.09;5133298;27;20066;-45
2022/02/04 09:36:28;;;;;;;11.73;5.65;;;;;;;7.25;100.00;100775.56;5133466;27;20035;-47
2022/02/04 09:38:58;;;;;;;9.55;5.65;;;;;;;7.17;100.00;100754.19;5133582;27;20043;-45
2022/02/04 09:41:27;;;;;;;11.07;5.50;;;;;;;7.14;100.00;100749.13;5133567;27;20095;-46
2022/02/04 09:43:55;;;;;;;11.48;6.13;;;;;;;7.15;100.00;100735.13;5133256;27;20385;-46
2022/02/04 09:46:24;;;;;;;10.63;5.57;;;;;;;7.18;100.00;100725.34;5129849;27;20066;-45
2022/02/04 09:48:56;;;;;;;12.73;6.53;;;;;;;7.22;100.00;100723.41;5130322;27;20043;-45
2022/02/04 09:51:34;;;;;;;9.15;5.40;;;;;;;7.23;100.00;100705.03;5133099;27;20043;-48
2022/02/04 10:08:33;;;;;;;11.95;6.40;;;;;;;7.19;100.00;100685.19;5073272;28;20055;-46
2022/02/04 10:14:10;;;;;;;9.90;6.53;;;;;;;7.34;100.00;100690.53;5088293;28;20111;-56
2022/02/04 10:19:31;;;;;;;11.35;6.43;;;;;;;7.35;100.00;100686.97;5123796;28;20059;-56
2022/02/04 10:22:00;;;;;;;9.25;6.30;;;;;;;7.38;100.00;100689.44;5132734;28;20071;-57
2022/02/04 10:24:30;;;;;;;9.45;5.75;;;;;;;7.39;100.00;100694.59;5132894;28;20115;-57
2022/02/04 10:27:11;;;;;;;9.27;5.60;;;;;;;7.46;100.00;100692.47;5149202;27;20409;-44
2022/02/04 10:29:42;;;;;;;8.70;5.55;;;;;;;7.46;100.00;100692.47;5137085;27;20050;-49
2022/02/04 10:32:10;;;;;;;9.77;5.88;;;;;;;7.42;100.00;100678.72;5136883;27;20035;-46
2022/02/04 10:34:42;;;;;;;9.40;4.78;;;;;;;7.44;100.00;100686.47;5136907;27;20489;-48
2022/02/04 10:37:24;;;;;;;8.20;4.32;;;;;;;7.47;100.00;100685.47;5136839;27;20050;-44
2022/02/04 10:40:10;;;;;;;8.07;4.53;;;;;;;7.40;100.00;100671.88;5136719;27;20096;-48
2022/02/04 10:42:56;;;;;;;6.95;4.28;;;;;;;7.34;100.00;100669.59;5136729;27;20121;-55
2022/02/04 10:45:43;;;;;;;8.75;4.97;;;;;;;7.25;100.00;100650.88;5136721;27;20070;-50
2022/02/04 10:48:34;;;;;;;9.55;4.93;;;;;;;7.26;100.00;100657.75;5136610;27;20058;-46
2022/02/04 10:54:32;;;;;;;9.20;5.47;;;;;;;7.32;100.00;100669.69;5132876;27;20807;-56
2022/02/04 11:00:05;;;;;;;8.98;5.63;;;;;;;7.27;100.00;100651.59;5085154;27;20066;-56
2022/02/04 11:02:38;;;;;;;8.02;5.25;;;;;;;7.25;100.00;100648.25;5136291;27;20039;-47
2022/02/04 11:05:19;;;;;;;9.15;5.25;;;;;;;7.25;100.00;100635.16;5136522;27;20035;-56
2022/02/04 11:30:53;;;;;;;7.90;4.55;;;;;;;7.54;100.00;100616.16;5136189;27;20043;-49
2022/02/04 11:33:49;;;;;;;8.20;4.25;;;;;;;7.59;100.00;100587.94;5135733;27;20050;-46
2022/02/04 11:54:39;;;;;;;6.10;3.17;;;;;;;7.99;100.00;100519.34;5118493;27;20047;-45
2022/02/04 11:57:25;;;;;;;6.45;3.63;;;;;;;7.97;100.00;100500.28;5135447;27;20055;-55
2022/02/04 11:59:59;;;;;;;6.78;3.58;;;;;;;8.02;100.00;100506.09;5134433;27;20134;-55
2022/02/04 12:02:33;;;;;;;6.25;3.25;;;;;;;8.05;100.00;100498.88;5131917;27;20126;-46
2022/02/04 12:05:27;;;;;;;6.35;3.53;;;;;;;8.13;100.00;100498.41;5132808;27;20418;-55
2022/02/04 12:08:05;;;;;;;7.43;3.40;;;;;;;8.12;100.00;100491.47;5135228;27;20514;-49
2022/02/04 12:10:42;;;;;;;7.38;3.70;;;;;;;8.15;100.00;100483.44;5135132;27;20594;-56
2022/02/04 12:13:12;;;;;;;6.18;3.10;;;;;;;8.15;100.00;100467.72;5133463;27;20635;-45
2022/02/04 12:16:05;;;;;;;5.72;2.85;;;;;;;8.13;100.00;100469.59;5130806;27;20086;-46
2022/02/04 12:19:11;;;;;;;5.82;2.80;;;;;;;8.13;100.00;100456.50;5134814;27;20527;-57
2022/02/04 12:21:45;;;;;;;5.97;2.88;;;;;;;8.19;100.00;100458.72;5134830;27;20051;-54
2022/02/04 12:24:37;;;;;;;5.82;3.05;;;;;;;8.22;100.00;100458.56;5130527;27;20111;-49
2022/02/04 12:27:34;;;;;;;5.72;2.65;;;;;;;8.16;100.00;100456.31;5118871;27;20069;-56
2022/02/04 12:30:45;;;;;;;4.72;2.50;;;;;;;8.12;100.00;100439.09;5134795;27;20043;-45
2022/02/04 12:33:16;;;;;;;5.63;2.70;;;;;;;8.17;100.00;100438.84;5134895;27;20047;-56
2022/02/04 12:35:44;;;;;;;5.75;2.88;;;;;;;8.13;100.00;100443.41;5134572;27;20047;-56
2022/02/04 12:38:12;;;;;;;6.70;2.72;;;;;;;8.20;100.00;100422.91;5134486;27;20103;-56
2022/02/04 12:40:40;;;;;;;4.97;2.55;;;;;;;8.15;100.00;100431.03;5115962;27;20043;-56
2022/02/04 12:43:10;;;;;;;4.85;2.55;;;;;;;8.18;100.00;100425.63;5131536;27;20043;-56
2022/02/04 12:45:42;;;;;;;6.63;3.58;;;;;;;8.23;100.00;100413.06;5130791;27;20043;-55
2022/02/04 12:48:10;;;;;;;6.57;2.85;;;;;;;8.26;100.00;100405.03;5134133;27;20610;-46
2022/02/04 12:50:41;;;;;;;6.15;3.13;;;;;;;8.23;100.00;100420.09;5133971;27;20476;-56
2022/02/04 12:53:10;;;;;;;5.50;2.88;;;;;;;8.31;100.00;100409.97;5133992;27;20077;-54
2022/02/04 12:58:42;;;;;;;5.75;2.60;;;;;;;8.19;100.00;100395.03;5130171;27;20412;-55
2022/02/04 13:09:52;;;;;;;5.32;2.80;;;;;;;8.20;99.06;100371.34;5133863;27;20051;-56
2022/02/04 13:12:20;;;;;;;5.20;2.60;;;;;;;8.30;99.20;100376.84;5133867;27;20047;-54
2022/02/04 13:14:50;;;;;;;5.55;2.40;;;;;;;8.25;97.60;100378.94;5133635;27;20703;-54
2022/02/04 13:17:32;;;;;;;4.35;2.35;;;;;;;8.26;98.35;100360.50;5132328;27;20047;-53
2022/02/04 13:20:01;;;;;;;8.38;2.60;;;;;;;8.28;97.95;100348.13;5128976;27;20058;-56
2022/02/04 13:22:31;;;;;;;7.30;2.53;;;;;;;8.24;98.30;100351.88;5132054;27;20075;-46
2022/02/04 13:25:15;;;;;;;4.20;2.38;;;;;;;8.22;98.11;100353.78;5133544;27;20137;-49
2022/02/04 13:28:18;;;;;;;4.28;2.20;;;;;;;8.26;97.23;100349.16;5133586;27;20117;-46
2022/02/04 13:30:59;;;;;;;4.75;1.95;;;;;;;8.25;96.99;100340.47;5133596;27;20511;-46
2022/02/04 13:33:29;;;;;;;5.07;2.30;;;;;;;8.25;96.65;100334.41;5133643;27;20050;-50
2022/02/04 13:36:03;;;;;;;4.63;2.53;;;;;;;8.20;97.90;100334.69;5128577;27;20057;-48
2022/02/04 13:38:45;;;;;;;5.00;2.45;;;;;;;8.15;99.10;100330.69;5131067;27;20051;-49
2022/02/04 13:41:25;;;;;;;5.45;2.60;;;;;;;8.10;100.00;100318.72;5133450;27;20532;-49
2022/02/04 13:46:41;;;;;;;5.07;2.53;;;;;;;7.93;100.00;100318.91;5125320;27;20201;-45
2022/02/04 13:49:30;;;;;;;5.13;2.75;;;;;;;7.92;100.00;100310.25;5130581;27;20554;-46
2022/02/04 13:52:05;;;;;;;7.07;3.63;;;;;;;7.92;100.00;100322.47;5133207;27;20500;-47
2022/02/04 13:54:41;;;;;;;7.68;3.60;;;;;;;7.85;100.00;100311.53;5133599;27;20047;-45
2022/02/04 14:00:01;;;;;;;6.78;3.17;;;;;;;7.75;100.00;100308.66;5130128;28;20154;-47
2022/02/04 14:02:38;;;;;;;8.25;3.80;;;;;;;7.63;100.00;100313.81;5132901;27;20120;-44
2022/02/04 14:05:08;;;;;;;7.63;3.70;;;;;;;7.57;100.00;100305.41;5133184;28;20039;-47
2022/02/04 14:07:40;;;;;;;8.50;4.03;;;;;;;7.60;100.00;100289.50;5133070;28;20512;-50
2022/02/04 14:10:24;;;;;;;8.90;4.43;;;;;;;7.51;100.00;100297.06;5129713;28;20094;-48
2022/02/04 14:13:07;;;;;;;8.65;4.63;;;;;;;7.42;100.00;100294.09;5128365;28;20039;-46
2022/02/04 14:15:37;;;;;;;7.57;3.75;;;;;;;7.36;100.00;100285.75;5133136;28;20524;-44
2022/02/04 14:18:09;;;;;;;8.82;4.35;;;;;;;7.35;100.00;100286.69;5133121;28;20051;-45
2022/02/04 14:20:40;;;;;;;8.00;3.70;;;;;;;7.38;100.00;100291.75;5132893;28;20525;-46
2022/02/04 14:23:09;;;;;;;9.88;4.40;;;;;;;7.41;100.00;100294.19;5132860;28;20043;-46
2022/02/04 14:25:49;;;;;;;8.63;4.18;;;;;;;7.24;100.00;100282.97;5132782;28;20504;-46
2022/02/04 14:28:23;;;;;;;10.20;4.50;;;;;;;7.21;100.00;100283.16;5131329;28;20688;-49
2022/02/04 14:30:58;;;;;;;9.90;4.65;;;;;;;7.12;100.00;100262.78;5128317;28;20058;-46
2022/02/04 14:34:21;;;;;;;8.40;4.32;;;;;;;7.11;100.00;100266.31;5112199;28;20055;-48
2022/02/04 14:36:32;;;;;;;10.43;4.80;;;;;;;7.10;100.00;100251.56;5132226;28;20070;-48
2022/02/04 14:50:30;;;;;;;9.75;4.68;;;;;;;6.89;100.00;100220.53;5127955;28;20675;-49
2022/02/04 14:53:20;;;;;;;11.18;4.90;;;;;;;6.95;100.00;100235.00;5132393;28;20442;-47
2022/02/04 14:59:06;;;;;;;6.88;2.75;;;;;;;6.68;100.00;100316.75;5132838;28;20050;-49
2022/02/04 15:01:51;;;;;;;4.47;1.55;;;;;;;6.22;100.00;100342.84;5132600;28;20043;-46
2022/02/04 15:04:35;;;;;;;5.15;1.35;;;;;;;5.89;100.00;100357.59;5129824;28;20058;-48
2022/02/04 15:07:07;;;;;;;1.13;0.90;;;;;;;5.70;100.00;100375.97;5127800;28;20043;-45
2022/02/04 15:09:38;;;;;;;0.70;0.60;;;;;;;5.41;100.00;100374.84;5131896;28;20043;-46
2022/02/04 15:12:07;;;;;;;0.93;0.77;;;;;;;5.27;100.00;100408.63;5132682;28;20051;-45
2022/02/04 15:14:37;;;;;;;1.70;0.82;;;;;;;4.91;100.00;100419.00;5133806;27;20039;-46
2022/02/04 15:17:05;;;;;;;0.50;0.50;;;;;;;4.77;100.00;100426.63;5136014;27;20100;-49
2022/02/04 15:19:34;;;;;;;3.00;0.50;;;;;;;4.79;100.00;100429.19;5136303;27;20073;-50
2022/02/04 15:22:06;;;;;;;1.58;0.70;;;;;;;4.62;100.00;100437.78;5135983;27;20051;-45
2022/02/04 15:24:34;;;;;;;0.50;0.50;;;;;;;4.41;100.00;100450.88;5136074;27;20039;-48
2022/02/04 15:27:03;;;;;;;1.33;0.57;;;;;;;4.21;100.00;100459.59;5136283;27;20609;-47
2022/02/04 15:29:34;;;;;;;0.77;0.50;;;;;;;4.12;100.00;100471.28;5136007;27;20047;-46
2022/02/04 15:32:05;;;;;;;1.83;0.52;;;;;;;3.93;100.00;100499.00;5135848;27;20099;-44
2022/02/04 15:34:34;;;;;;;0.52;0.45;;;;;;;3.84;100.00;100501.06;5136013;27;20529;-45
2022/02/04 15:37:03;;;;;;;1.00;0.60;;;;;;;3.76;100.00;100510.13;5136019;27;20381;-47
2022/02/04 15:39:31;;;;;;;0.60;0.50;;;;;;;3.90;100.00;100518.22;5135802;27;20050;-45
2022/02/04 15:42:05;;;;;;;0.68;0.60;;;;;;;3.75;100.00;100534.44;5132902;27;20130;-45
2022/02/04 15:44:40;;;;;;;1.75;0.77;;;;;;;3.65;100.00;100539.19;5131736;27;20039;-45
2022/02/04 15:47:24;;;;;;;0.60;0.60;;;;;;;3.64;100.00;100540.09;5135140;27;20125;-47
2022/02/04 15:50:02;;;;;;;1.58;0.82;;;;;;;3.64;100.00;100555.69;5135653;27;20043;-49
2022/02/04 15:52:49;;;;;;;3.40;0.90;;;;;;;3.66;100.00;100566.88;5135216;27;20055;-45
2022/02/04 16:01:13;;;;;;;1.17;0.90;;;;;;;3.55;100.00;100595.94;5031507;28;20515;-48
2022/02/04 16:03:59;;;;;;;0.82;0.82;;;;;;;3.55;100.00;100606.34;5118737;27;20047;-47
2022/02/04 16:06:29;;;;;;;1.67;1.02;;;;;;;3.72;100.00;100621.25;5135109;27;20038;-47
2022/02/04 16:08:58;;;;;;;2.13;1.25;;;;;;;3.62;100.00;100619.94;5134869;27;20228;-48